LBT641 LTFM-DTTA
Flight info
| Callsign | LBT641 |
|---|---|
| Flight time | N/A |
| Altitude | 36000 |
| Route | BARPE UM603 TSL UM600 KRK UL869 LATAN DCT MARON DCT DINUX DCT SONAK |
| Aircraft | A320/M-SDE3FGHIRWY/LB1 |
Departure
| Time | N/A |
|---|---|
| Airport | İstanbul Airport (LTFM) |
Arrival
| Time | 2026-05-06 16:14 |
|---|---|
| Airport | Tunis Carthage International Airport (DTTA) |
| Time | Latitude | Longitude | Altitude | Speed | Heading |
|---|---|---|---|---|---|
| 2026-05-06 14:49 | 39.67810 | 20.75859 | 36120 ft | 420 kts | 248° |
| 2026-05-06 14:49 | 39.65488 | 20.68897 | 36126 ft | 420 kts | 249° |
| 2026-05-06 14:50 | 39.63162 | 20.61944 | 36105 ft | 420 kts | 248° |
| 2026-05-06 14:50 | 39.60811 | 20.55005 | 36114 ft | 420 kts | 248° |
| 2026-05-06 14:51 | 39.58444 | 20.48083 | 36104 ft | 420 kts | 248° |
| 2026-05-06 14:51 | 39.56079 | 20.41208 | 36102 ft | 420 kts | 248° |
| 2026-05-06 14:52 | 39.53700 | 20.34287 | 36098 ft | 420 kts | 248° |
| 2026-05-06 14:52 | 39.51321 | 20.27364 | 36100 ft | 421 kts | 248° |
| 2026-05-06 14:53 | 39.48968 | 20.20525 | 36090 ft | 421 kts | 248° |
| 2026-05-06 14:53 | 39.46579 | 20.13604 | 36084 ft | 421 kts | 248° |
| 2026-05-06 14:54 | 39.44383 | 20.06599 | 36089 ft | 419 kts | 256° |
| 2026-05-06 14:54 | 39.43304 | 19.99252 | 36087 ft | 419 kts | 261° |
| 2026-05-06 14:55 | 39.42287 | 19.91834 | 36075 ft | 419 kts | 261° |
| 2026-05-06 14:55 | 39.41259 | 19.84413 | 36090 ft | 419 kts | 261° |
| 2026-05-06 14:56 | 39.40226 | 19.76997 | 36082 ft | 419 kts | 260° |
| 2026-05-06 14:56 | 39.39192 | 19.69564 | 36089 ft | 419 kts | 261° |
| 2026-05-06 14:57 | 39.38182 | 19.62136 | 36096 ft | 419 kts | 261° |
| 2026-05-06 14:57 | 39.37159 | 19.54716 | 36095 ft | 419 kts | 260° |
| 2026-05-06 14:58 | 39.36117 | 19.47337 | 36104 ft | 419 kts | 260° |
| 2026-05-06 14:58 | 39.35061 | 19.39930 | 36093 ft | 419 kts | 260° |
| 2026-05-06 14:59 | 39.34010 | 19.32533 | 36094 ft | 419 kts | 260° |
| 2026-05-06 14:59 | 39.32963 | 19.25127 | 36100 ft | 419 kts | 260° |
| 2026-05-06 15:00 | 39.31901 | 19.17718 | 36100 ft | 419 kts | 260° |
| 2026-05-06 15:00 | 39.30828 | 19.10321 | 36097 ft | 419 kts | 260° |
| 2026-05-06 15:01 | 39.29756 | 19.02924 | 36094 ft | 419 kts | 259° |
| 2026-05-06 15:01 | 39.27798 | 18.95852 | 36096 ft | 420 kts | 246° |
| 2026-05-06 15:02 | 39.25258 | 18.89062 | 36098 ft | 420 kts | 246° |
| 2026-05-06 15:02 | 39.22726 | 18.82271 | 36097 ft | 420 kts | 246° |
| 2026-05-06 15:03 | 39.20195 | 18.75483 | 36092 ft | 420 kts | 246° |
| 2026-05-06 15:03 | 39.17676 | 18.68751 | 36086 ft | 419 kts | 246° |
| 2026-05-06 15:04 | 39.15129 | 18.61986 | 36091 ft | 420 kts | 245° |
| 2026-05-06 15:04 | 39.12572 | 18.55222 | 36084 ft | 420 kts | 245° |
| 2026-05-06 15:05 | 39.10020 | 18.48462 | 36085 ft | 420 kts | 245° |
| 2026-05-06 15:05 | 39.07462 | 18.41704 | 36081 ft | 420 kts | 245° |
| 2026-05-06 15:06 | 39.04906 | 18.34944 | 36077 ft | 420 kts | 245° |
| 2026-05-06 15:06 | 39.02335 | 18.28186 | 36075 ft | 420 kts | 245° |
| 2026-05-06 15:07 | 38.99762 | 18.21443 | 36073 ft | 421 kts | 245° |
| 2026-05-06 15:07 | 38.97182 | 18.14695 | 36069 ft | 421 kts | 245° |
| 2026-05-06 15:08 | 38.94598 | 18.07937 | 36069 ft | 421 kts | 245° |
| 2026-05-06 15:08 | 38.92029 | 18.01238 | 36067 ft | 421 kts | 245° |
| 2026-05-06 15:09 | 38.89441 | 17.94498 | 36066 ft | 421 kts | 245° |
| 2026-05-06 15:09 | 38.86847 | 17.87765 | 36067 ft | 421 kts | 245° |
| 2026-05-06 15:10 | 38.84246 | 17.81034 | 36066 ft | 421 kts | 245° |
| 2026-05-06 15:10 | 38.81642 | 17.74293 | 36064 ft | 421 kts | 245° |
| 2026-05-06 15:11 | 38.79032 | 17.67566 | 36065 ft | 422 kts | 245° |
| 2026-05-06 15:11 | 38.76432 | 17.60877 | 36068 ft | 422 kts | 245° |
| 2026-05-06 15:12 | 38.73816 | 17.54157 | 36073 ft | 421 kts | 245° |
| 2026-05-06 15:12 | 38.71196 | 17.47445 | 36075 ft | 421 kts | 245° |
| 2026-05-06 15:13 | 38.68572 | 17.40746 | 36077 ft | 421 kts | 245° |
| 2026-05-06 15:13 | 38.65946 | 17.34050 | 36082 ft | 420 kts | 245° |
| 2026-05-06 15:14 | 38.63316 | 17.27366 | 36086 ft | 420 kts | 246° |
| 2026-05-06 15:14 | 38.60693 | 17.20691 | 36087 ft | 420 kts | 246° |
| 2026-05-06 15:15 | 38.58066 | 17.14022 | 36084 ft | 420 kts | 246° |
| 2026-05-06 15:15 | 38.55432 | 17.07366 | 36086 ft | 420 kts | 246° |
| 2026-05-06 15:16 | 38.52791 | 17.00718 | 36086 ft | 420 kts | 246° |
| 2026-05-06 15:16 | 38.50153 | 16.94069 | 36084 ft | 420 kts | 246° |
| 2026-05-06 15:17 | 38.47509 | 16.87420 | 36084 ft | 420 kts | 246° |
| 2026-05-06 15:17 | 38.44861 | 16.80778 | 36082 ft | 420 kts | 246° |
| 2026-05-06 15:18 | 38.42211 | 16.74136 | 36080 ft | 420 kts | 246° |
| 2026-05-06 15:18 | 38.40003 | 16.68627 | 36073 ft | 420 kts | 246° |
| 2026-05-06 15:19 | 38.36912 | 16.60927 | 36074 ft | 419 kts | 246° |
| 2026-05-06 15:19 | 38.34255 | 16.54321 | 36065 ft | 419 kts | 246° |
| 2026-05-06 15:20 | 38.32022 | 16.48793 | 36065 ft | 419 kts | 246° |
| 2026-05-06 15:20 | 38.29358 | 16.42200 | 36066 ft | 418 kts | 246° |
| 2026-05-06 15:21 | 38.26710 | 16.35670 | 36062 ft | 418 kts | 246° |
| 2026-05-06 15:21 | 38.24047 | 16.29105 | 36060 ft | 417 kts | 246° |
| 2026-05-06 15:22 | 38.21385 | 16.22549 | 36056 ft | 417 kts | 246° |
| 2026-05-06 15:22 | 38.18715 | 16.16007 | 36062 ft | 417 kts | 245° |
| 2026-05-06 15:23 | 38.16048 | 16.09471 | 36055 ft | 416 kts | 245° |
| 2026-05-06 15:23 | 38.13384 | 16.02949 | 36050 ft | 416 kts | 245° |
| 2026-05-06 15:24 | 38.10721 | 15.96428 | 36063 ft | 416 kts | 245° |
| 2026-05-06 15:24 | 38.08048 | 15.89925 | 36062 ft | 415 kts | 245° |
| 2026-05-06 15:25 | 38.05373 | 15.83431 | 36069 ft | 415 kts | 245° |
| 2026-05-06 15:25 | 38.02705 | 15.76955 | 36072 ft | 414 kts | 245° |
| 2026-05-06 15:26 | 38.00029 | 15.70490 | 36072 ft | 413 kts | 245° |
| 2026-05-06 15:26 | 37.97363 | 15.64045 | 36074 ft | 412 kts | 245° |
| 2026-05-06 15:27 | 37.94702 | 15.57619 | 36067 ft | 412 kts | 245° |
| 2026-05-06 15:27 | 37.92039 | 15.51213 | 36068 ft | 411 kts | 245° |
| 2026-05-06 15:28 | 37.89368 | 15.44821 | 36065 ft | 410 kts | 245° |
| 2026-05-06 15:28 | 37.86701 | 15.38440 | 36060 ft | 410 kts | 245° |
| 2026-05-06 15:29 | 37.84038 | 15.32071 | 36059 ft | 409 kts | 245° |
| 2026-05-06 15:29 | 37.81380 | 15.25720 | 36059 ft | 408 kts | 245° |
| 2026-05-06 15:30 | 37.78741 | 15.19429 | 36052 ft | 407 kts | 245° |
| 2026-05-06 15:30 | 37.76136 | 15.13088 | 36047 ft | 404 kts | 251° |
| 2026-05-06 15:31 | 37.74146 | 15.06465 | 36048 ft | 403 kts | 252° |
| 2026-05-06 15:31 | 37.72206 | 14.99878 | 36046 ft | 402 kts | 252° |
| 2026-05-06 15:32 | 37.69282 | 14.89969 | 36050 ft | 401 kts | 252° |
| 2026-05-06 15:32 | 37.67326 | 14.83397 | 36045 ft | 400 kts | 251° |
| 2026-05-06 15:33 | 37.65370 | 14.76835 | 36045 ft | 399 kts | 251° |
| 2026-05-06 15:33 | 37.63408 | 14.70273 | 36036 ft | 399 kts | 251° |
| 2026-05-06 15:34 | 37.61450 | 14.63723 | 36030 ft | 399 kts | 251° |
| 2026-05-06 15:34 | 37.59487 | 14.57179 | 36024 ft | 399 kts | 251° |
| 2026-05-06 15:35 | 37.57524 | 14.50673 | 36016 ft | 399 kts | 251° |
| 2026-05-06 15:35 | 37.55552 | 14.44134 | 36015 ft | 399 kts | 251° |
| 2026-05-06 15:36 | 37.53577 | 14.37585 | 36015 ft | 399 kts | 250° |
| 2026-05-06 15:36 | 37.51596 | 14.31054 | 36015 ft | 399 kts | 250° |
| 2026-05-06 15:37 | 37.49610 | 14.24499 | 36012 ft | 399 kts | 250° |
| 2026-05-06 15:37 | 37.47635 | 14.18011 | 36011 ft | 399 kts | 250° |
| 2026-05-06 15:38 | 37.45640 | 14.11483 | 36007 ft | 400 kts | 250° |
| 2026-05-06 15:38 | 37.43645 | 14.04947 | 36006 ft | 400 kts | 250° |
| 2026-05-06 15:39 | 37.41644 | 13.98424 | 36000 ft | 400 kts | 249° |
| 2026-05-06 15:39 | 37.39632 | 13.91903 | 35997 ft | 400 kts | 249° |
| 2026-05-06 15:40 | 37.37621 | 13.85369 | 35995 ft | 401 kts | 249° |
| 2026-05-06 15:40 | 37.35605 | 13.78823 | 35987 ft | 401 kts | 249° |
| 2026-05-06 15:41 | 37.33580 | 13.72280 | 35986 ft | 402 kts | 249° |
| 2026-05-06 15:41 | 37.31552 | 13.65732 | 35978 ft | 402 kts | 249° |
| 2026-05-06 15:42 | 37.29513 | 13.59180 | 35974 ft | 403 kts | 249° |
| 2026-05-06 15:42 | 37.27483 | 13.52673 | 35971 ft | 403 kts | 249° |
| 2026-05-06 15:43 | 37.25430 | 13.46099 | 35966 ft | 404 kts | 249° |
| 2026-05-06 15:43 | 37.23372 | 13.39527 | 35960 ft | 404 kts | 249° |
| 2026-05-06 15:44 | 37.21312 | 13.32954 | 35954 ft | 405 kts | 249° |
| 2026-05-06 15:44 | 37.19248 | 13.26380 | 35951 ft | 405 kts | 249° |
| 2026-05-06 15:45 | 37.17186 | 13.19840 | 35943 ft | 406 kts | 249° |
| 2026-05-06 15:45 | 37.15103 | 13.13250 | 35933 ft | 407 kts | 249° |
| 2026-05-06 15:46 | 37.13016 | 13.06654 | 35927 ft | 407 kts | 249° |
| 2026-05-06 15:46 | 37.10918 | 13.00048 | 35937 ft | 410 kts | 248° |
| 2026-05-06 15:47 | 37.08768 | 12.93308 | 35932 ft | 422 kts | 248° |
| 2026-05-06 15:47 | 37.06594 | 12.86498 | 35922 ft | 420 kts | 249° |
| 2026-05-06 15:48 | 37.04457 | 12.79793 | 35921 ft | 411 kts | 249° |
| 2026-05-06 15:48 | 37.02341 | 12.73166 | 35916 ft | 410 kts | 249° |
| 2026-05-06 15:49 | 37.00214 | 12.66547 | 35907 ft | 410 kts | 249° |
| 2026-05-06 15:49 | 36.98084 | 12.59931 | 35897 ft | 410 kts | 249° |
| 2026-05-06 15:50 | 36.95956 | 12.53324 | 35899 ft | 410 kts | 249° |
| 2026-05-06 15:50 | 36.94888 | 12.50017 | 35790 ft | 411 kts | 248° |
| 2026-05-06 15:50 | 36.93819 | 12.46716 | 35526 ft | 410 kts | 248° |
| 2026-05-06 15:51 | 36.92760 | 12.43449 | 35276 ft | 411 kts | 248° |
| 2026-05-06 15:51 | 36.91686 | 12.40139 | 35029 ft | 412 kts | 248° |
| 2026-05-06 15:51 | 36.90605 | 12.36807 | 34775 ft | 415 kts | 248° |
| 2026-05-06 15:51 | 36.89518 | 12.33463 | 34526 ft | 416 kts | 248° |
| 2026-05-06 15:52 | 36.88427 | 12.30105 | 34293 ft | 418 kts | 248° |
| 2026-05-06 15:52 | 36.87334 | 12.26739 | 34053 ft | 420 kts | 248° |
| 2026-05-06 15:52 | 36.86230 | 12.23347 | 33808 ft | 421 kts | 248° |
| 2026-05-06 15:52 | 36.85123 | 12.19956 | 33544 ft | 422 kts | 248° |
| 2026-05-06 15:53 | 36.84009 | 12.16557 | 33277 ft | 423 kts | 248° |
| 2026-05-06 15:53 | 36.82890 | 12.13152 | 33005 ft | 424 kts | 248° |
| 2026-05-06 15:53 | 36.81771 | 12.09748 | 32748 ft | 425 kts | 248° |
| 2026-05-06 15:53 | 36.80651 | 12.06337 | 32489 ft | 426 kts | 248° |
| 2026-05-06 15:54 | 36.79531 | 12.02916 | 32229 ft | 426 kts | 248° |
| 2026-05-06 15:54 | 36.78409 | 11.99489 | 31972 ft | 427 kts | 248° |
| 2026-05-06 15:54 | 36.77296 | 11.96100 | 31723 ft | 429 kts | 248° |
| 2026-05-06 15:54 | 36.76163 | 11.92660 | 31477 ft | 430 kts | 248° |
| 2026-05-06 15:55 | 36.75020 | 11.89205 | 31215 ft | 431 kts | 247° |
| 2026-05-06 15:55 | 36.73892 | 11.85797 | 30782 ft | 421 kts | 247° |
| 2026-05-06 15:55 | 36.72780 | 11.82430 | 30295 ft | 418 kts | 247° |
| 2026-05-06 15:55 | 36.71681 | 11.79098 | 29791 ft | 414 kts | 247° |
| 2026-05-06 15:56 | 36.70590 | 11.75795 | 29242 ft | 411 kts | 247° |
| 2026-05-06 15:56 | 36.69497 | 11.72502 | 28694 ft | 417 kts | 246° |
| 2026-05-06 15:56 | 36.68369 | 11.69116 | 28098 ft | 426 kts | 247° |
| 2026-05-06 15:56 | 36.67242 | 11.65713 | 27452 ft | 424 kts | 248° |
| 2026-05-06 15:57 | 36.66522 | 11.62174 | 26799 ft | 422 kts | 263° |
| 2026-05-06 15:57 | 36.66562 | 11.58533 | 26176 ft | 420 kts | 273° |
| 2026-05-06 15:57 | 36.66826 | 11.54922 | 25567 ft | 417 kts | 273° |
| 2026-05-06 15:57 | 36.67101 | 11.51346 | 24976 ft | 413 kts | 273° |
| 2026-05-06 15:58 | 36.67380 | 11.47794 | 24394 ft | 410 kts | 273° |
| 2026-05-06 15:58 | 36.67656 | 11.44276 | 23822 ft | 406 kts | 273° |
| 2026-05-06 15:58 | 36.67928 | 11.40785 | 23221 ft | 403 kts | 273° |
| 2026-05-06 15:58 | 36.68195 | 11.37323 | 22540 ft | 400 kts | 272° |
| 2026-05-06 15:59 | 36.68458 | 11.33879 | 21762 ft | 399 kts | 272° |
| 2026-05-06 15:59 | 36.68716 | 11.30450 | 20994 ft | 393 kts | 272° |
| 2026-05-06 15:59 | 36.68722 | 11.27156 | 20253 ft | 371 kts | 258° |
| 2026-05-06 15:59 | 36.68171 | 11.24088 | 19533 ft | 355 kts | 252° |
| 2026-05-06 16:00 | 36.67297 | 11.21290 | 18833 ft | 341 kts | 244° |
| 2026-05-06 16:00 | 36.66328 | 11.18648 | 18138 ft | 330 kts | 243° |
| 2026-05-06 16:00 | 36.65411 | 11.16066 | 17347 ft | 323 kts | 248° |
| 2026-05-06 16:00 | 36.64838 | 11.13393 | 16665 ft | 315 kts | 253° |
| 2026-05-06 16:01 | 36.64398 | 11.10760 | 16040 ft | 306 kts | 253° |
| 2026-05-06 16:01 | 36.63980 | 11.08183 | 15431 ft | 304 kts | 253° |
| 2026-05-06 16:01 | 36.63575 | 11.05614 | 14996 ft | 314 kts | 253° |
| 2026-05-06 16:01 | 36.63137 | 11.02847 | 14629 ft | 335 kts | 253° |
| 2026-05-06 16:02 | 36.62685 | 10.99970 | 14282 ft | 340 kts | 253° |
| 2026-05-06 16:02 | 36.62270 | 10.97063 | 13932 ft | 343 kts | 258° |
| 2026-05-06 16:02 | 36.62269 | 10.94062 | 13459 ft | 348 kts | 265° |
| 2026-05-06 16:02 | 36.62358 | 10.91004 | 12927 ft | 363 kts | 266° |
| 2026-05-06 16:03 | 36.62455 | 10.87736 | 12409 ft | 388 kts | 267° |
| 2026-05-06 16:03 | 36.62568 | 10.84344 | 11909 ft | 394 kts | 267° |
| 2026-05-06 16:03 | 36.62692 | 10.80929 | 11381 ft | 396 kts | 267° |
| 2026-05-06 16:03 | 36.62818 | 10.77502 | 10776 ft | 395 kts | 268° |
| 2026-05-06 16:04 | 36.62940 | 10.74087 | 10182 ft | 395 kts | 268° |
| 2026-05-06 16:04 | 36.63052 | 10.70669 | 9591 ft | 395 kts | 268° |
| 2026-05-06 16:04 | 36.63159 | 10.67271 | 8943 ft | 390 kts | 268° |
| 2026-05-06 16:04 | 36.63262 | 10.63926 | 8318 ft | 384 kts | 268° |
| 2026-05-06 16:05 | 36.63360 | 10.60676 | 7708 ft | 378 kts | 269° |
| 2026-05-06 16:05 | 36.63459 | 10.57438 | 7224 ft | 369 kts | 269° |
| 2026-05-06 16:05 | 36.63555 | 10.54313 | 6913 ft | 349 kts | 269° |
| 2026-05-06 16:05 | 36.63405 | 10.51447 | 6653 ft | 317 kts | 255° |
| 2026-05-06 16:06 | 36.62972 | 10.48848 | 6325 ft | 298 kts | 253° |
| 2026-05-06 16:06 | 36.62535 | 10.46376 | 5953 ft | 290 kts | 254° |
| 2026-05-06 16:06 | 36.62085 | 10.43947 | 5585 ft | 287 kts | 253° |
| 2026-05-06 16:06 | 36.61709 | 10.41507 | 5219 ft | 289 kts | 261° |
| 2026-05-06 16:07 | 36.61524 | 10.39026 | 4937 ft | 287 kts | 263° |
| 2026-05-06 16:07 | 36.61409 | 10.37394 | 4778 ft | 286 kts | 263° |
| 2026-05-06 16:07 | 36.61237 | 10.34937 | 4528 ft | 284 kts | 264° |
| 2026-05-06 16:07 | 36.61066 | 10.32507 | 4269 ft | 277 kts | 265° |
| 2026-05-06 16:08 | 36.61015 | 10.30147 | 3974 ft | 268 kts | 269° |
| 2026-05-06 16:08 | 36.60979 | 10.27887 | 3659 ft | 255 kts | 268° |
| 2026-05-06 16:08 | 36.60939 | 10.25726 | 3349 ft | 244 kts | 268° |
| 2026-05-06 16:08 | 36.60897 | 10.23659 | 3056 ft | 233 kts | 268° |
| 2026-05-06 16:09 | 36.60867 | 10.21699 | 2997 ft | 224 kts | 274° |
| 2026-05-06 16:09 | 36.61259 | 10.19856 | 3000 ft | 220 kts | 300° |
| 2026-05-06 16:09 | 36.62281 | 10.18541 | 2998 ft | 214 kts | 336° |
| 2026-05-06 16:09 | 36.63693 | 10.18094 | 3005 ft | 209 kts | 358° |
| 2026-05-06 16:10 | 36.65146 | 10.17945 | 3005 ft | 210 kts | 358° |
| 2026-05-06 16:10 | 36.66605 | 10.17834 | 3004 ft | 210 kts | 4° |
| 2026-05-06 16:10 | 36.68039 | 10.18071 | 3005 ft | 208 kts | 14° |
| 2026-05-06 16:10 | 36.69447 | 10.18443 | 2868 ft | 205 kts | 14° |
| 2026-05-06 16:11 | 36.70822 | 10.18818 | 2643 ft | 198 kts | 15° |
| 2026-05-06 16:11 | 36.72146 | 10.19178 | 2385 ft | 192 kts | 14° |
| 2026-05-06 16:11 | 36.73430 | 10.19527 | 2120 ft | 183 kts | 14° |
| 2026-05-06 16:11 | 36.74605 | 10.19845 | 1892 ft | 164 kts | 14° |
| 2026-05-06 16:12 | 36.75669 | 10.20133 | 1705 ft | 149 kts | 15° |
| 2026-05-06 16:12 | 36.76653 | 10.20401 | 1481 ft | 143 kts | 15° |
| 2026-05-06 16:12 | 36.77621 | 10.20664 | 1303 ft | 141 kts | 14° |
| 2026-05-06 16:12 | 36.78584 | 10.20926 | 1113 ft | 141 kts | 14° |
| 2026-05-06 16:13 | 36.79534 | 10.21184 | 923 ft | 140 kts | 14° |
| 2026-05-06 16:13 | 36.80482 | 10.21442 | 740 ft | 139 kts | 13° |
| 2026-05-06 16:13 | 36.81413 | 10.21695 | 570 ft | 136 kts | 13° |
| 2026-05-06 16:13 | 36.82329 | 10.21944 | 387 ft | 134 kts | 14° |
| 2026-05-06 16:14 | 36.83245 | 10.22196 | 221 ft | 135 kts | 10° |
| 2026-05-06 16:14 | 36.84130 | 10.22428 | 47 ft | 129 kts | 15° |
| 2026-05-06 16:14 | 36.84878 | 10.22638 | 33 ft | 85 kts | 15° |
| 2026-05-06 16:14 | 36.85289 | 10.22747 | 33 ft | 36 kts | 11° |
| 2026-05-06 16:15 | 36.85383 | 10.22771 | 34 ft | 4 kts | 11° |
| 2026-05-06 16:15 | 36.85505 | 10.22804 | 32 ft | 25 kts | 14° |
| 2026-05-06 16:15 | 36.85674 | 10.22857 | 30 ft | 25 kts | 13° |
| 2026-05-06 16:15 | 36.85846 | 10.22904 | 30 ft | 26 kts | 11° |
| 2026-05-06 16:16 | 36.85999 | 10.22849 | 29 ft | 25 kts | 306° |
| 2026-05-06 16:16 | 36.85988 | 10.22678 | 30 ft | 22 kts | 197° |
| 2026-05-06 16:16 | 36.85877 | 10.22632 | 30 ft | 16 kts | 194° |
| 2026-05-06 16:16 | 36.85734 | 10.22595 | 30 ft | 27 kts | 192° |
| 2026-05-06 16:17 | 36.85546 | 10.22545 | 31 ft | 29 kts | 192° |
| 2026-05-06 16:17 | 36.85355 | 10.22491 | 31 ft | 23 kts | 194° |
| 2026-05-06 16:17 | 36.85204 | 10.22448 | 34 ft | 22 kts | 191° |
| 2026-05-06 16:17 | 36.85050 | 10.22412 | 32 ft | 24 kts | 191° |
| 2026-05-06 16:18 | 36.84921 | 10.22375 | 31 ft | 18 kts | 192° |
| 2026-05-06 16:18 | 36.84876 | 10.22267 | 30 ft | 15 kts | 281° |
| 2026-05-06 16:18 | 36.84894 | 10.22150 | 30 ft | 13 kts | 284° |
| 2026-05-06 16:18 | 36.84879 | 10.22053 | 30 ft | 11 kts | 223° |
| 2026-05-06 16:19 | 36.84767 | 10.22026 | 30 ft | 16 kts | 200° |
| 2026-05-06 16:19 | 36.84712 | 10.21980 | 30 ft | 6 kts | 191° |
| 2026-05-06 16:19 | 36.84674 | 10.21964 | 30 ft | 5 kts | 198° |
| 2026-05-06 16:19 | 36.84661 | 10.21959 | 30 ft | 0 kts | 196° |